Ana Sayfa
METAR-TAF:

METAR-TAF

Havaalanları :

Bağdat Uluslararası Havaalanı

Bağdat, Irak

Enlem: 33-15-45N, Boylam: 44-14-04E, yükseklik: 35 m

Güncel hava durumu gözlemi

Rapor saat 20:00 UTC de 27 dakika önce yapıldı.
Rüzgar değişken yönden 2 kt
Sıcaklık 33°C
Nem 28%
Basınç 1000 hPa
Görüş mesafesi 10 km veya daha fazla
1500 m altında bulut yok ve kümülonimbus yok

METAR: ORBI 152000Z VRB02KT CAVOK 33/12 Q1000 NOSIG

Saat: 23:27 (20:27 UTC)

Tahmin

Rapor saat 16:00 UTC de 4 saat ve 27 dakika önce yapıldı.
Ayın 15'si saat 18 UTC'den ayın 16'si saat 18 UTC'ye kadar geçerli Tahmin
Rüzgar batı/kuzeybatıdan 9 kt
Görüş mesafesi 10 km veya daha fazla
1500 m altında bulut yok ve kümülonimbus yok

TAF: ORBI 151600Z 1518/1618 30009KT CAVOK

4.000'den fazla havaalanı için hava durumu gözlemleri ve tahminleri (METAR ve TAF raporları).

Kullanılabilir istasyonlar harita üzerinde sarı ve kırmızı noktalarla gösterilir.

İstasyonun adını görmek için fareyi noktanın üzerinde gezdirin.

Sonrasında hava gözlem ve tahminlerini görmek için tıklayın.

Haritayı değiştirmek için: yaklaştırmak için siyah artı işaretli yeşil düğmeye ve uzaklaştırmak için de eksi işaretli düğmeye hızla tıklayın; bitişik haritalar için yeşil okları kullanın.


METAR-TAF: